TimeMDT,TemperatureF,Dew PointF,Humidity,Sea Level PressureIn,VisibilityMPH,Wind Direction,Wind SpeedMPH,Gust SpeedMPH,PrecipitationIn,Events,Conditions,WindDirDegrees,DateUTC
12:56 AM,55.0,48.9,80,30.12,10.0,WNW,8.1,-,N/A,,Clear,290,2013-06-29 06:56:00
1:56 AM,54.0,48.0,80,30.12,10.0,WNW,8.1,-,N/A,,Clear,290,2013-06-29 07:56:00
2:56 AM,53.1,48.0,83,30.13,10.0,WNW,8.1,-,N/A,,Clear,290,2013-06-29 08:56:00
3:56 AM,52.0,46.9,83,30.13,10.0,West,8.1,-,N/A,,Clear,280,2013-06-29 09:56:00
4:56 AM,52.0,46.9,83,30.13,10.0,West,8.1,-,N/A,,Clear,280,2013-06-29 10:56:00
5:56 AM,54.0,48.9,83,30.13,10.0,WNW,8.1,-,N/A,,Clear,290,2013-06-29 11:56:00
6:56 AM,60.1,52.0,75,30.12,10.0,West,9.2,-,N/A,,Clear,280,2013-06-29 12:56:00
7:56 AM,66.9,53.1,61,30.12,10.0,WNW,10.4,-,N/A,,Clear,290,2013-06-29 13:56:00
8:56 AM,72.0,55.9,57,30.12,10.0,WNW,9.2,-,N/A,,Clear,300,2013-06-29 14:56:00
9:56 AM,73.9,51.1,45,30.12,10.0,NW,13.8,-,N/A,,Clear,320,2013-06-29 15:56:00
10:56 AM,75.9,53.1,45,30.12,10.0,NNW,11.5,-,N/A,,Clear,340,2013-06-29 16:56:00
11:56 AM,75.9,52.0,43,30.12,10.0,NNW,16.1,-,N/A,,Clear,340,2013-06-29 17:56:00
12:56 PM,78.1,54.0,43,30.11,10.0,NNW,12.7,-,N/A,,Scattered Clouds,340,2013-06-29 18:56:00
1:56 PM,77.0,53.1,43,30.11,10.0,NNW,12.7,20.7,N/A,,Mostly Cloudy,340,2013-06-29 19:56:00
2:56 PM,79.0,53.1,40,30.10,10.0,North,10.4,20.7,N/A,,Partly Cloudy,350,2013-06-29 20:56:00
3:56 PM,75.9,53.1,45,30.10,10.0,North,12.7,-,N/A,,Partly Cloudy,350,2013-06-29 21:56:00
4:56 PM,75.0,53.1,46,30.10,10.0,North,8.1,-,N/A,,Scattered Clouds,360,2013-06-29 22:56:00
5:56 PM,75.9,53.1,45,30.09,10.0,North,10.4,-,N/A,,Clear,360,2013-06-29 23:56:00
6:56 PM,73.0,54.0,51,30.08,10.0,NNE,10.4,-,N/A,,Clear,30,2013-06-30 00:56:00
7:56 PM,69.1,57.0,65,30.08,10.0,NE,5.8,-,N/A,,Clear,40,2013-06-30 01:56:00
8:56 PM,63.0,54.0,72,30.09,10.0,NNE,6.9,-,N/A,,Clear,30,2013-06-30 02:56:00
9:56 PM,61.0,53.1,75,30.11,10.0,NE,4.6,-,N/A,,Clear,50,2013-06-30 03:56:00
10:56 PM,61.0,54.0,78,30.12,10.0,NE,3.5,-,N/A,,Clear,50,2013-06-30 04:56:00
11:56 PM,59.0,53.1,81,30.12,10.0,NE,4.6,-,N/A,,Clear,40,2013-06-30 05:56:00